»·PEaware :: N445SP KSBP-L88

N445SP :: KSBP-L88

FLIGHT INFORMATION

Flight Status: Arrived
Operator: Privately registered:
United States
More flights under this callsign
Pilot: Sven H. (18957)
Aircraft: CESSNA T210 TURBO CENTURION
(T210)
More flights by this aircraft type
Origin: KSBP San Luis Co Regl
United States
Destination: L88 New Cuyama
United States
More flights between these airports :: More routes between these airports
Route: DCT
File this flight plan on PilotEdge
Remarks:
Altitude:
(Current/Filed)
0ft
Speed:
(Current/Filed)
0kts
Departed: 12-May-18 11:26 AM
Arrived: 12-May-18 11:54 AM
Distance/Time
Traveled:
50nm/0:28
Distance/Time
To Go:
Arrived

Flight Plot

Page will automatically refresh every two minutes.

Flight plan parsing failed; only flown route is shown


Map Options




Map Legend


Flown Route
Filed Route
Departure Airport
Arrival Airport
Navaid (VOR, NDB)
Fix

Horizontal Profiles

Position Reports

Time Latitude Longitude Heading Altitude Ground
Speed
12-May-18 11:18 35.238923 -120.639441 180 193ft 0kts
12-May-18 11:19 35.238923 -120.639441 180 193ft 0kts
12-May-18 11:20 35.238802 -120.639441 178 194ft 0kts
12-May-18 11:21 35.235981 -120.636551 124 207ft 23kts
12-May-18 11:22 35.233212 -120.632051 208 219ft 0kts
12-May-18 11:23 35.233197 -120.632062 208 219ft 0kts
12-May-18 11:24 35.233197 -120.632062 208 219ft 0kts
12-May-18 11:25 35.233197 -120.633630 301 212ft 5kts
12-May-18 11:26 35.247456 -120.657392 302 708ft 128kts
12-May-18 11:27 35.231200 -120.657851 119 1418ft 160kts
12-May-18 11:28 35.209385 -120.604086 117 991ft 184kts
12-May-18 11:29 35.189634 -120.556579 117 2084ft 133kts
12-May-18 11:30 35.178118 -120.518300 108 3232ft 113kts
12-May-18 11:31 35.170639 -120.483011 105 4394ft 104kts
12-May-18 11:32 35.164110 -120.449563 105 5570ft 100kts
12-May-18 11:33 35.157918 -120.417327 105 6747ft 96kts
12-May-18 11:34 35.148452 -120.372290 105 6492ft 165kts
12-May-18 11:35 35.137108 -120.320029 106 6203ft 167kts
12-May-18 11:36 35.125551 -120.266561 106 6204ft 163kts
12-May-18 11:37 35.113944 -120.227578 111 5907ft 124kts
12-May-18 11:38 35.114169 -120.181197 82 5709ft 145kts
12-May-18 11:39 35.121676 -120.127872 82 5478ft 173kts
12-May-18 11:40 35.113867 -120.071900 109 4964ft 145kts
12-May-18 11:41 35.099006 -120.028886 115 4437ft 133kts
12-May-18 11:42 35.082889 -119.989048 120 3933ft 128kts
12-May-18 11:43 35.065602 -119.951102 120 3499ft 123kts
12-May-18 11:44 35.047181 -119.917753 127 3201ft 113kts
12-May-18 11:45 35.029951 -119.889605 127 3198ft 97kts
12-May-18 11:46 35.014359 -119.863932 127 3200ft 91kts
12-May-18 11:47 34.999456 -119.839263 128 3203ft 89kts
12-May-18 11:48 34.981961 -119.805683 127 3212ft 142kts
12-May-18 11:49 34.963426 -119.770347 126 3185ft 152kts
12-May-18 11:50 34.946519 -119.722536 112 2857ft 157kts
12-May-18 11:51 34.932542 -119.685921 124 2673ft 101kts
12-May-18 11:52 34.922818 -119.653391 60 3210ft 93kts
12-May-18 11:53 34.932825 -119.667962 272 2561ft 77kts
12-May-18 11:54 34.939616 -119.685099 214 2180ft 0kts
12-May-18 11:55 34.939615 -119.685113 268 2180ft 0kts
12-May-18 11:56 34.939827 -119.685455 305 2178ft 4kts
12-May-18 11:57 34.942885 -119.691138 31 2151ft 13kts
12-May-18 11:58 34.942689 -119.690625 185 2153ft 0kts
12-May-18 11:59 34.942689 -119.690625 185 2153ft 0kts
12-May-18 12:00 34.942689 -119.690625 185 2153ft 0kts
12-May-18 12:01 34.942689 -119.690625 185 2153ft 0kts
12-May-18 12:02 34.942689 -119.690625 185 2153ft 0kts
12-May-18 12:03 34.942689 -119.690625 185 2153ft 0kts
12-May-18 12:04 34.942689 -119.690625 185 2153ft 0kts
12-May-18 12:05 34.942689 -119.690625 185 2153ft 0kts
12-May-18 12:06 34.942689 -119.690625 185 2153ft 0kts
12-May-18 12:07 34.942689 -119.690625 185 2153ft 0kts
12-May-18 12:08 34.942689 -119.690625 185 2153ft 0kts

Navigation Log

Ident Type
Flight plan parsing failed, navigation log unavailable